Time;durP1;ratioP1;P1;durP2;ratioP2;P2;SDS_P1;SDS_P2;PMS_P1;PMS_P2;Temp;Humidity;BMP_temperature;BMP_pressure;BME280_temperature;BME280_humidity;BME280_pressure;Samples;Min_cycle;Max_cycle;Signal;HPM_P1;HPM_P2
2023/03/01 00:04:35;;;;;;;17.63;12.77;;;;;;;-5.79;100.00;102836.13;10454972;28;20096;-78
2023/03/01 00:09:37;;;;;;;17.60;12.48;;;;;;;-5.74;100.00;102840.25;10437816;28;20060;-77
2023/03/01 00:14:37;;;;;;;30.52;14.80;;;;;;;-5.75;100.00;102836.81;10443433;28;20120;-76
2023/03/01 00:19:38;;;;;;;20.13;14.37;;;;;;;-5.66;100.00;102843.94;10490217;28;20521;-77
2023/03/01 00:24:38;;;;;;;24.90;14.57;;;;;;;-5.63;100.00;102846.94;10461557;28;20120;-77
2023/03/01 00:29:39;;;;;;;17.43;11.73;;;;;;;-5.73;100.00;102834.47;10450602;28;20127;-78
2023/03/01 00:34:39;;;;;;;20.70;12.43;;;;;;;-5.80;100.00;102825.00;10483164;28;20116;-78
2023/03/01 00:39:40;;;;;;;19.83;15.17;;;;;;;-5.85;100.00;102825.97;10470636;28;20115;-78
2023/03/01 00:44:40;;;;;;;17.90;8.87;;;;;;;-5.91;100.00;102825.09;10487251;28;20380;-78
2023/03/01 00:49:41;;;;;;;21.20;14.27;;;;;;;-5.95;100.00;102822.78;10447487;28;20165;-78
2023/03/01 00:54:41;;;;;;;17.23;12.37;;;;;;;-5.84;100.00;102817.63;10483367;28;20060;-77
2023/03/01 00:59:42;;;;;;;18.53;9.90;;;;;;;-5.83;100.00;102811.81;10488534;28;20124;-77
2023/03/01 01:04:42;;;;;;;17.27;14.17;;;;;;;-5.94;100.00;102812.81;10457937;28;20503;-78
2023/03/01 01:09:43;;;;;;;17.00;11.27;;;;;;;-5.93;100.00;102809.53;10414148;28;20041;-78
2023/03/01 01:14:43;;;;;;;25.57;15.50;;;;;;;-5.91;100.00;102803.03;10447410;28;20069;-78
2023/03/01 01:19:44;;;;;;;19.40;13.00;;;;;;;-5.92;100.00;102796.09;10443983;28;20166;-77
2023/03/01 01:24:44;;;;;;;22.93;14.90;;;;;;;-5.99;100.00;102795.00;10435586;28;20068;-78
2023/03/01 01:29:45;;;;;;;19.00;12.50;;;;;;;-6.06;100.00;102789.06;10445171;28;20403;-77
2023/03/01 01:34:46;;;;;;;20.60;13.83;;;;;;;-6.10;100.00;102778.16;10466177;28;20132;-78
2023/03/01 01:39:46;;;;;;;21.73;14.20;;;;;;;-6.13;100.00;102765.91;10460229;28;20037;-78
2023/03/01 01:44:47;;;;;;;21.27;13.63;;;;;;;-6.17;100.00;102772.88;10430418;28;20125;-78
2023/03/01 01:49:54;;;;;;;17.60;11.43;;;;;;;-6.29;100.00;102760.19;10442928;28;20067;-78
2023/03/01 01:55:07;;;;;;;23.25;14.63;;;;;;;-6.32;100.00;102748.66;10443918;28;20036;-78
2023/03/01 02:00:21;;;;;;;21.50;13.52;;;;;;;-6.19;100.00;102749.72;10419942;28;20496;-78
2023/03/01 02:05:48;;;;;;;21.80;14.65;;;;;;;-6.21;100.00;102741.84;10458321;28;20421;-76
2023/03/01 02:10:48;;;;;;;19.05;13.75;;;;;;;-6.30;100.00;102737.06;10401785;28;20048;-77
2023/03/01 02:15:49;;;;;;;22.37;14.83;;;;;;;-6.40;100.00;102724.59;10441768;28;20048;-77
2023/03/01 02:21:17;;;;;;;18.20;12.40;;;;;;;-6.50;100.00;102723.25;10444576;28;20890;-77
2023/03/01 02:26:30;;;;;;;20.98;13.85;;;;;;;-6.54;100.00;102723.50;10478171;28;20068;-78
2023/03/01 02:31:43;;;;;;;19.35;14.30;;;;;;;-6.44;100.00;102728.34;10454789;28;20412;-77
2023/03/01 02:36:48;;;;;;;20.90;14.15;;;;;;;-6.51;100.00;102726.50;10478815;28;20032;-77
2023/03/01 02:41:50;;;;;;;23.35;14.52;;;;;;;-6.50;100.00;102732.53;10424015;28;20488;-77
2023/03/01 02:46:52;;;;;;;22.67;14.45;;;;;;;-6.47;100.00;102732.03;10439727;28;20048;-78
2023/03/01 02:52:05;;;;;;;21.65;14.85;;;;;;;-6.49;100.00;102724.19;10425647;28;20051;-77
2023/03/01 02:57:05;;;;;;;23.48;16.25;;;;;;;-6.53;100.00;102721.91;10425178;28;20049;-78
2023/03/01 03:02:07;;;;;;;22.63;14.77;;;;;;;-6.42;100.00;102726.00;10423183;28;20041;-77
2023/03/01 03:07:07;;;;;;;16.42;12.77;;;;;;;-6.56;100.00;102724.91;10448389;28;20046;-78
2023/03/01 03:12:08;;;;;;;27.93;18.13;;;;;;;-6.63;100.00;102729.81;10434328;28;20139;-78
2023/03/01 03:17:08;;;;;;;21.33;11.23;;;;;;;-6.75;100.00;102722.94;10450444;28;20114;-77
2023/03/01 03:22:09;;;;;;;20.77;13.03;;;;;;;-6.87;100.00;102730.63;10439528;28;20191;-78
2023/03/01 03:27:09;;;;;;;26.97;14.90;;;;;;;-6.86;100.00;102724.81;10441006;28;20120;-78
2023/03/01 03:32:10;;;;;;;23.33;14.57;;;;;;;-6.76;100.00;102728.72;10430187;28;20045;-78
2023/03/01 03:38:01;;;;;;;23.67;15.63;;;;;;;-6.90;100.00;102734.34;10459257;28;20039;-78
2023/03/01 03:42:31;;;;;;;42.67;19.10;;;;;;;-7.03;100.00;102729.06;10427040;28;20055;-77
2023/03/01 03:47:31;;;;;;;21.37;14.03;;;;;;;-7.04;100.00;102730.69;10449452;28;20044;-75
2023/03/01 03:52:32;;;;;;;19.27;14.30;;;;;;;-7.06;100.00;102723.50;10463704;28;20110;-78
2023/03/01 03:57:32;;;;;;;20.83;14.63;;;;;;;-7.10;100.00;102725.59;10415739;28;20120;-78
2023/03/01 04:02:33;;;;;;;21.97;16.30;;;;;;;-6.98;100.00;102717.91;10424798;28;20487;-78
2023/03/01 04:07:37;;;;;;;21.17;14.80;;;;;;;-6.81;100.00;102713.69;10431762;28;20064;-78
2023/03/01 04:12:38;;;;;;;21.08;14.82;;;;;;;-6.93;100.00;102705.19;10443778;28;20404;-78
2023/03/01 04:17:47;;;;;;;26.37;16.50;;;;;;;-7.06;100.00;102703.16;10455540;28;20124;-78
2023/03/01 04:22:48;;;;;;;25.75;15.57;;;;;;;-7.09;100.00;102706.19;10432974;28;20032;-78
2023/03/01 04:27:48;;;;;;;25.40;16.33;;;;;;;-7.10;100.00;102695.06;10426472;28;20047;-78
2023/03/01 04:32:50;;;;;;;26.57;15.07;;;;;;;-7.14;100.00;102687.66;10431575;28;20041;-78
2023/03/01 04:37:50;;;;;;;23.63;17.25;;;;;;;-7.20;100.00;102685.84;10431553;28;20040;-77
2023/03/01 04:42:51;;;;;;;31.60;18.80;;;;;;;-7.27;100.00;102663.66;10443450;28;20468;-78
2023/03/01 04:47:54;;;;;;;26.97;17.17;;;;;;;-7.30;100.00;102670.84;10405436;28;20076;-77
2023/03/01 04:52:58;;;;;;;25.10;17.40;;;;;;;-7.47;100.00;102670.91;10438928;28;20045;-78
2023/03/01 04:57:58;;;;;;;25.27;16.75;;;;;;;-7.50;100.00;102667.91;10466167;27;20041;-78
2023/03/01 05:03:00;;;;;;;21.43;16.37;;;;;;;-7.52;100.00;102672.75;10426848;28;20170;-77
2023/03/01 05:08:02;;;;;;;23.08;15.27;;;;;;;-7.56;100.00;102675.53;10416384;28;20429;-77
2023/03/01 05:13:03;;;;;;;25.77;18.77;;;;;;;-7.30;100.00;102668.28;10448296;28;20048;-77
2023/03/01 05:18:03;;;;;;;24.17;16.23;;;;;;;-7.40;100.00;102669.47;10441964;28;20057;-77
2023/03/01 05:23:05;;;;;;;22.90;16.27;;;;;;;-7.52;100.00;102667.66;10451221;28;20074;-77
2023/03/01 05:28:07;;;;;;;24.88;17.60;;;;;;;-7.62;100.00;102665.38;10400753;28;20044;-77
2023/03/01 05:33:13;;;;;;;24.63;18.17;;;;;;;-7.55;100.00;102670.69;10411568;28;20037;-77
2023/03/01 05:38:13;;;;;;;25.10;19.97;;;;;;;-7.41;100.00;102662.53;10409187;28;20052;-77
2023/03/01 05:43:14;;;;;;;24.03;18.77;;;;;;;-7.35;100.00;102659.06;10446375;28;20040;-76
2023/03/01 05:48:15;;;;;;;25.55;17.73;;;;;;;-7.45;100.00;102647.50;10452736;28;20070;-76
2023/03/01 05:53:17;;;;;;;42.97;25.27;;;;;;;-7.69;100.00;102648.25;10442243;28;20127;-76
2023/03/01 05:58:18;;;;;;;26.60;17.13;;;;;;;-7.66;100.00;102645.28;10397187;28;20045;-78
2023/03/01 06:03:19;;;;;;;;;;;;;;;-7.64;100.00;102637.84;10462198;28;20036;-77
2023/03/01 06:08:20;;;;;;;35.85;24.45;;;;;;;-7.61;100.00;102640.84;10455947;28;19928;-78
2023/03/01 06:13:23;;;;;;;32.40;22.30;;;;;;;-7.62;100.00;102639.00;10455740;28;20102;-77
2023/03/01 06:18:23;;;;;;;34.07;21.17;;;;;;;-7.58;100.00;102641.31;10412202;28;20049;-77
2023/03/01 06:23:24;;;;;;;24.13;17.03;;;;;;;-7.67;100.00;102651.97;10428061;28;20116;-77
2023/03/01 06:28:24;;;;;;;24.93;17.73;;;;;;;-7.58;100.00;102657.50;10381821;28;20063;-77
2023/03/01 06:33:25;;;;;;;28.50;18.33;;;;;;;-7.50;100.00;102663.72;10356520;28;20068;-77
2023/03/01 06:38:25;;;;;;;24.73;17.13;;;;;;;-7.37;100.00;102669.91;10366971;28;20453;-78
2023/03/01 06:43:27;;;;;;;;;;;;;;;-7.28;100.00;102664.34;10395454;28;20177;-77
2023/03/01 06:48:27;;;;;;;27.13;17.00;;;;;;;-7.19;100.00;102650.44;10477386;28;20035;-77
2023/03/01 06:53:28;;;;;;;26.17;18.90;;;;;;;-7.01;100.00;102643.66;10467767;28;20044;-78
2023/03/01 06:58:29;;;;;;;23.87;16.93;;;;;;;-7.01;100.00;102648.75;10420995;28;20431;-78
2023/03/01 07:03:29;;;;;;;29.30;19.17;;;;;;;-6.85;100.00;102657.00;10442345;28;20164;-77
2023/03/01 07:08:30;;;;;;;33.07;20.97;;;;;;;-6.71;100.00;102641.16;10449614;28;20041;-76
2023/03/01 07:13:30;;;;;;;25.97;18.17;;;;;;;-6.51;100.00;102649.16;10451979;28;20045;-77
2023/03/01 07:18:31;;;;;;;34.63;18.33;;;;;;;-5.16;100.00;102657.81;10439830;28;20392;-78
2023/03/01 07:23:31;;;;;;;27.53;18.17;;;;;;;-4.89;100.00;102655.63;10458314;28;20119;-78
2023/03/01 07:28:35;;;;;;;19.23;14.53;;;;;;;-4.17;100.00;102647.38;10475381;28;20108;-77
2023/03/01 07:33:39;;;;;;;22.92;15.02;;;;;;;-3.54;100.00;102645.53;10437453;28;20041;-77
2023/03/01 07:38:39;;;;;;;20.85;12.90;;;;;;;-3.46;100.00;102640.53;10470413;28;20558;-76
2023/03/01 07:43:40;;;;;;;19.27;13.07;;;;;;;-3.66;100.00;102638.78;10459478;28;20120;-76
2023/03/01 07:48:40;;;;;;;23.77;13.63;;;;;;;-3.79;100.00;102640.44;10419361;28;20121;-78
2023/03/01 07:53:41;;;;;;;18.57;12.57;;;;;;;-3.70;100.00;102634.00;10422658;28;20537;-77
2023/03/01 07:58:42;;;;;;;22.43;13.03;;;;;;;-3.05;100.00;102639.91;10401379;28;20121;-76
2023/03/01 08:03:43;;;;;;;26.00;14.97;;;;;;;-2.64;100.00;102633.22;10436562;28;20067;-76
2023/03/01 08:08:44;;;;;;;19.95;12.80;;;;;;;-2.40;100.00;102634.53;10443764;28;20476;-76
2023/03/01 08:13:47;;;;;;;25.93;16.27;;;;;;;-2.16;100.00;102631.59;10477657;28;20040;-76
2023/03/01 08:18:47;;;;;;;19.42;11.68;;;;;;;-1.51;100.00;102615.66;10444509;28;20389;-76
2023/03/01 08:23:48;;;;;;;27.40;18.23;;;;;;;-1.14;100.00;102615.06;10414274;28;20116;-77
2023/03/01 08:28:49;;;;;;;37.70;21.67;;;;;;;-0.91;100.00;102609.25;10404865;28;20493;-77
2023/03/01 08:33:54;;;;;;;71.90;41.50;;;;;;;-0.94;100.00;102606.31;10464542;28;20448;-77
2023/03/01 08:38:55;;;;;;;18.45;11.60;;;;;;;-0.69;100.00;102604.16;10400762;28;20094;-77
2023/03/01 08:43:58;;;;;;;20.63;15.30;;;;;;;-0.51;100.00;102595.13;10439140;28;20043;-76
2023/03/01 08:48:59;;;;;;;18.05;12.57;;;;;;;-0.30;100.00;102592.56;10433531;28;20037;-76
2023/03/01 08:53:59;;;;;;;22.83;16.33;;;;;;;-0.11;100.00;102588.69;10447890;28;20128;-76
2023/03/01 08:59:00;;;;;;;28.77;14.48;;;;;;;0.06;100.00;102588.09;10452859;28;20230;-77
2023/03/01 09:04:00;;;;;;;16.20;11.60;;;;;;;0.28;100.00;102589.88;10428050;28;20144;-76
2023/03/01 09:09:01;;;;;;;15.82;10.63;;;;;;;0.53;100.00;102582.41;10457129;28;20756;-75
2023/03/01 09:14:04;;;;;;;14.80;11.93;;;;;;;0.75;100.00;102586.56;10454209;28;20047;-76
2023/03/01 09:19:05;;;;;;;18.05;11.68;;;;;;;1.09;100.00;102573.25;10488218;28;20065;-75
2023/03/01 09:24:06;;;;;;;19.58;13.25;;;;;;;1.15;100.00;102558.47;10459016;28;20040;-76
2023/03/01 09:29:09;;;;;;;18.52;11.73;;;;;;;1.49;100.00;102551.03;10459379;28;20123;-76
2023/03/01 09:34:09;;;;;;;20.48;13.05;;;;;;;1.82;100.00;102549.41;10477014;28;20451;-76
2023/03/01 09:39:10;;;;;;;16.35;10.52;;;;;;;1.88;100.00;102551.03;10442950;28;20110;-76
2023/03/01 09:44:13;;;;;;;18.25;10.95;;;;;;;2.05;100.00;102544.22;10444760;28;20123;-76
2023/03/01 09:49:25;;;;;;;16.00;10.50;;;;;;;2.24;100.00;102541.94;10401355;28;20037;-76
2023/03/01 09:54:25;;;;;;;17.90;10.87;;;;;;;2.37;100.00;102543.25;10440985;28;20056;-76
2023/03/01 09:59:37;;;;;;;16.05;10.23;;;;;;;3.25;100.00;102538.66;10441655;28;20370;-76
2023/03/01 10:04:45;;;;;;;17.55;9.70;;;;;;;4.61;86.09;102529.00;10458695;28;20032;-76
2023/03/01 10:09:46;;;;;;;17.05;9.57;;;;;;;6.40;76.25;102525.00;10458272;28;20503;-77
2023/03/01 10:15:11;;;;;;;13.75;10.48;;;;;;;9.16;60.58;102506.66;10474574;28;20037;-76
2023/03/01 10:20:19;;;;;;;16.55;11.73;;;;;;;10.85;54.39;102514.19;10424573;28;20036;-75
2023/03/01 10:25:38;;;;;;;16.02;10.48;;;;;;;11.59;47.64;102494.03;10471700;28;20163;-75
2023/03/01 10:30:41;;;;;;;13.98;8.75;;;;;;;12.28;44.77;102481.22;10441798;28;20476;-74
2023/03/01 10:35:42;;;;;;;13.35;9.18;;;;;;;11.75;44.78;102472.41;10473138;28;20037;-76
2023/03/01 10:41:06;;;;;;;22.85;14.77;;;;;;;11.26;44.91;102476.06;10441306;28;20141;-74
2023/03/01 10:46:22;;;;;;;18.90;10.13;;;;;;;11.42;43.73;102461.41;10438222;28;20118;-76
2023/03/01 10:51:23;;;;;;;17.13;9.07;;;;;;;11.01;44.33;102460.28;10441033;28;20037;-75
2023/03/01 10:56:25;;;;;;;15.65;11.20;;;;;;;11.52;43.16;102450.75;10441529;28;20539;-74
2023/03/01 11:01:25;;;;;;;;;;;;;;;11.85;43.04;102435.50;10426030;28;20032;-73
2023/03/01 11:06:26;;;;;;;17.00;9.88;;;;;;;11.35;42.91;102446.06;10426184;28;19921;-74
2023/03/01 11:11:31;;;;;;;14.82;10.45;;;;;;;11.80;40.85;102431.66;10475769;28;20295;-75
2023/03/01 11:16:38;;;;;;;16.70;12.75;;;;;;;12.40;40.37;102433.84;10443134;28;20083;-74
2023/03/01 11:21:44;;;;;;;23.17;14.35;;;;;;;13.00;40.00;102434.13;10447820;28;20090;-73
2023/03/01 11:26:49;;;;;;;13.98;9.73;;;;;;;12.87;39.46;102429.84;10444005;28;20049;-74
2023/03/01 11:31:50;;;;;;;15.63;10.80;;;;;;;13.59;38.18;102432.50;10454775;28;20037;-75
2023/03/01 11:36:56;;;;;;;14.98;10.23;;;;;;;13.79;37.89;102436.34;10410588;28;20448;-74
2023/03/01 11:42:17;;;;;;;16.38;10.50;;;;;;;14.39;37.23;102420.47;10400759;28;20511;-73
2023/03/01 11:47:27;;;;;;;19.90;14.98;;;;;;;13.49;38.79;102407.38;10426516;28;20048;-74
2023/03/01 11:52:34;;;;;;;20.08;10.70;;;;;;;12.82;38.11;102419.03;10445589;28;20036;-74
2023/03/01 11:57:48;;;;;;;16.05;10.60;;;;;;;13.48;37.81;102410.81;10447490;28;20033;-75
2023/03/01 12:03:13;;;;;;;16.50;11.57;;;;;;;13.52;37.67;102420.72;10445003;28;20120;-75
2023/03/01 12:08:43;;;;;;;14.88;10.95;;;;;;;13.69;36.72;102424.34;10454595;28;20086;-75
2023/03/01 12:13:52;;;;;;;13.68;8.82;;;;;;;14.48;36.03;102404.28;10442840;28;20033;-75
2023/03/01 12:19:06;;;;;;;16.05;9.05;;;;;;;14.42;34.69;102393.41;10434292;28;20116;-74
2023/03/01 12:24:34;;;;;;;20.52;11.85;;;;;;;13.78;34.87;102392.41;10413223;28;20065;-76
2023/03/01 12:29:37;;;;;;;17.23;9.13;;;;;;;13.60;35.63;102381.69;10453797;28;20049;-74
2023/03/01 12:34:50;;;;;;;27.20;9.98;;;;;;;13.69;36.60;102366.47;10429011;28;20087;-78
2023/03/01 12:39:50;;;;;;;13.00;8.65;;;;;;;14.83;34.25;102357.91;10483082;28;20546;-75
2023/03/01 12:45:28;;;;;;;22.35;10.50;;;;;;;15.07;34.87;102347.78;10447844;28;20125;-77
2023/03/01 12:50:34;;;;;;;13.95;7.15;;;;;;;13.97;34.32;102341.75;10475837;28;20043;-76
2023/03/01 12:55:42;;;;;;;11.70;8.70;;;;;;;13.17;36.23;102323.06;10473784;28;20428;-76
2023/03/01 13:00:51;;;;;;;10.90;7.85;;;;;;;11.77;38.78;102318.66;10457257;28;20048;-76
2023/03/01 13:06:07;;;;;;;10.98;8.45;;;;;;;11.21;40.33;102308.81;10418913;28;20045;-76
2023/03/01 13:11:21;;;;;;;14.40;8.75;;;;;;;11.34;40.25;102303.59;10422979;28;20131;-76
2023/03/01 13:16:44;;;;;;;13.07;8.55;;;;;;;12.06;40.37;102309.19;10476202;28;20040;-76
2023/03/01 13:21:45;;;;;;;17.63;12.35;;;;;;;12.81;39.39;102305.97;10472606;28;20103;-75
2023/03/01 13:27:08;;;;;;;55.50;36.63;;;;;;;13.53;36.81;102296.28;10460687;28;20053;-75
2023/03/01 13:32:17;;;;;;;;;;;;;;;12.53;38.93;102299.91;10444973;28;20048;-75
2023/03/01 13:37:25;;;;;;;12.82;6.95;;;;;;;13.01;37.91;102292.31;10444043;28;19968;-75
2023/03/01 13:42:37;;;;;;;9.45;6.72;;;;;;;12.41;37.23;102275.50;10446344;28;20057;-75
2023/03/01 13:47:38;;;;;;;16.05;6.65;;;;;;;12.51;38.11;102279.63;10474470;28;20404;-75
2023/03/01 13:52:59;;;;;;;13.95;6.88;;;;;;;12.31;38.86;102271.41;10458773;28;20037;-75
2023/03/01 13:58:01;;;;;;;20.60;16.60;;;;;;;11.34;39.28;102264.28;10476482;28;20388;-76
2023/03/01 14:03:18;;;;;;;9.93;6.53;;;;;;;11.69;38.90;102256.94;10443953;28;20043;-75
2023/03/01 14:08:21;;;;;;;14.48;9.63;;;;;;;12.96;37.14;102243.84;10435011;28;20052;-75
2023/03/01 14:13:31;;;;;;;42.75;28.80;;;;;;;12.90;36.10;102238.22;10475677;28;20036;-75
2023/03/01 14:18:44;;;;;;;28.70;23.00;;;;;;;13.07;38.06;102231.31;10474833;28;20037;-75
2023/03/01 14:23:46;;;;;;;11.50;6.95;;;;;;;11.75;38.70;102226.75;10480925;28;20052;-76
2023/03/01 14:28:47;;;;;;;9.38;6.63;;;;;;;12.36;37.37;102224.41;10484036;28;20097;-75
2023/03/01 14:33:53;;;;;;;12.48;8.73;;;;;;;12.45;37.39;102222.38;10494192;28;20391;-75
2023/03/01 14:38:54;;;;;;;10.38;6.93;;;;;;;12.67;37.71;102219.34;10454099;28;20099;-75
2023/03/01 14:43:59;;;;;;;10.80;7.82;;;;;;;13.04;37.16;102221.56;10475402;28;20479;-75
2023/03/01 14:49:05;;;;;;;12.10;6.55;;;;;;;12.12;37.99;102219.44;10478616;28;20464;-76
2023/03/01 14:54:41;;;;;;;9.32;6.88;;;;;;;12.34;37.71;102211.22;10469660;28;20033;-76
2023/03/01 14:59:42;;;;;;;8.18;6.72;;;;;;;12.11;38.06;102209.75;10441711;28;20041;-76
2023/03/01 15:04:45;;;;;;;9.00;6.13;;;;;;;11.60;39.29;102210.03;10437749;28;20393;-75
2023/03/01 15:09:45;;;;;;;12.20;7.35;;;;;;;11.96;38.24;102200.06;10411638;28;20033;-75
2023/03/01 15:14:48;;;;;;;28.95;20.10;;;;;;;11.73;37.95;102189.03;10466355;28;20079;-76
2023/03/01 15:19:49;;;;;;;36.63;26.30;;;;;;;11.78;39.33;102188.41;10468290;28;20045;-75
2023/03/01 15:24:49;;;;;;;18.67;10.95;;;;;;;11.10;38.59;102174.47;10441420;28;20037;-76
2023/03/01 15:30:00;;;;;;;38.83;28.17;;;;;;;10.74;39.35;102160.72;10457820;28;20048;-76
2023/03/01 15:35:01;;;;;;;14.27;9.05;;;;;;;8.90;42.92;102170.34;10449798;28;20033;-77
2023/03/01 15:40:04;;;;;;;9.87;6.23;;;;;;;8.27;44.37;102172.53;10445941;28;20032;-78
2023/03/01 15:45:20;;;;;;;14.15;7.60;;;;;;;7.54;45.67;102169.41;10449476;28;20268;-75
2023/03/01 15:50:22;;;;;;;13.43;10.48;;;;;;;6.86;47.46;102161.25;10455652;28;20467;-75
2023/03/01 15:55:29;;;;;;;13.25;8.65;;;;;;;6.74;48.62;102162.06;10405527;28;20041;-75
2023/03/01 16:00:30;;;;;;;12.82;7.68;;;;;;;6.23;49.68;102168.19;10405882;28;20037;-75
2023/03/01 16:05:32;;;;;;;10.65;6.28;;;;;;;6.01;51.30;102166.31;10424636;28;20127;-76
2023/03/01 16:10:33;;;;;;;15.40;13.90;;;;;;;5.64;51.87;102164.72;10449399;28;20044;-76
2023/03/01 16:15:35;;;;;;;11.73;8.93;;;;;;;5.23;53.17;102160.28;10430441;28;20041;-75
2023/03/01 16:20:36;;;;;;;21.80;13.98;;;;;;;4.75;55.06;102154.28;10444775;28;20037;-76
2023/03/01 16:25:37;;;;;;;14.10;9.45;;;;;;;4.34;58.10;102154.84;10446536;28;20061;-76
2023/03/01 16:30:39;;;;;;;13.23;9.57;;;;;;;4.01;59.95;102147.41;10457661;28;20056;-76
2023/03/01 16:35:40;;;;;;;13.55;8.27;;;;;;;3.72;61.38;102143.84;10437992;28;20041;-77
2023/03/01 16:40:40;;;;;;;14.60;10.50;;;;;;;3.58;62.64;102145.13;10404574;28;20088;-76
2023/03/01 16:45:44;;;;;;;22.75;10.90;;;;;;;3.30;64.15;102142.44;10401167;28;20053;-76
2023/03/01 16:50:44;;;;;;;12.95;7.90;;;;;;;2.76;68.24;102153.59;10435480;28;20053;-76
2023/03/01 16:55:45;;;;;;;27.25;16.25;;;;;;;2.39;74.05;102157.66;10409808;28;20159;-77
2023/03/01 17:00:45;;;;;;;21.02;11.13;;;;;;;1.92;82.86;102162.34;10416562;28;20061;-76
2023/03/01 17:05:46;;;;;;;16.75;8.07;;;;;;;1.51;85.89;102165.03;10433068;28;20480;-76
2023/03/01 17:10:47;;;;;;;15.75;9.63;;;;;;;1.04;88.79;102168.66;10465786;28;20045;-76
2023/03/01 17:15:48;;;;;;;16.83;10.68;;;;;;;0.93;91.67;102167.50;10493111;28;20059;-76
2023/03/01 17:20:48;;;;;;;15.13;10.10;;;;;;;0.75;93.72;102166.44;10452118;28;20060;-77
2023/03/01 17:25:49;;;;;;;15.25;10.13;;;;;;;0.33;100.00;102177.38;10452139;28;20068;-77
2023/03/01 17:30:49;;;;;;;16.52;9.70;;;;;;;0.10;100.00;102178.31;10438898;28;20569;-78
2023/03/01 17:35:50;;;;;;;14.13;9.45;;;;;;;-0.11;100.00;102180.34;10443054;28;20048;-76
2023/03/01 17:40:50;;;;;;;13.88;8.30;;;;;;;-0.29;100.00;102179.22;10411584;28;20400;-78
2023/03/01 17:45:51;;;;;;;16.73;10.82;;;;;;;-0.61;100.00;102179.97;10430409;28;20162;-77
2023/03/01 17:50:51;;;;;;;21.17;11.88;;;;;;;-0.79;100.00;102190.72;10457289;28;20120;-76
2023/03/01 17:55:58;;;;;;;16.95;10.85;;;;;;;-0.86;100.00;102190.75;10443992;28;20182;-77
2023/03/01 18:01:12;;;;;;;18.42;11.35;;;;;;;-1.13;100.00;102190.34;10434801;28;20480;-76
2023/03/01 18:06:14;;;;;;;16.08;10.02;;;;;;;-1.38;100.00;102195.19;10454407;28;20424;-77
2023/03/01 18:11:16;;;;;;;16.00;10.45;;;;;;;-1.56;100.00;102200.75;10461400;28;20059;-77
2023/03/01 18:16:17;;;;;;;15.13;9.18;;;;;;;-1.72;100.00;102211.78;10453716;28;20047;-76
2023/03/01 18:21:20;;;;;;;21.87;11.60;;;;;;;-1.78;100.00;102199.09;10483184;28;20032;-77
2023/03/01 18:26:21;;;;;;;19.27;9.75;;;;;;;-1.81;100.00;102200.41;10460927;28;20398;-76
2023/03/01 18:31:21;;;;;;;16.90;11.33;;;;;;;-1.97;100.00;102200.22;10464941;28;20507;-77
2023/03/01 18:36:26;;;;;;;14.70;10.30;;;;;;;-2.09;100.00;102194.56;10435281;28;20033;-75
2023/03/01 18:41:27;;;;;;;18.50;10.18;;;;;;;-2.20;100.00;102197.50;10448742;28;20045;-75
2023/03/01 18:46:28;;;;;;;22.03;9.87;;;;;;;-2.24;100.00;102196.19;10442708;28;20041;-75
2023/03/01 18:51:29;;;;;;;21.53;12.53;;;;;;;-2.20;100.00;102184.66;10433087;28;20157;-76
2023/03/01 18:56:30;;;;;;;23.67;11.43;;;;;;;-2.16;100.00;102181.72;10423606;28;20135;-76
2023/03/01 19:01:30;;;;;;;14.80;10.23;;;;;;;-2.32;100.00;102178.97;10421778;28;20046;-76
2023/03/01 19:06:32;;;;;;;21.05;15.00;;;;;;;-2.47;100.00;102172.91;10435926;28;20099;-75
2023/03/01 19:11:34;;;;;;;19.15;12.38;;;;;;;-2.66;100.00;102173.25;10398193;28;20033;-75
2023/03/01 19:16:34;;;;;;;18.88;10.95;;;;;;;-2.87;100.00;102164.78;10384468;28;20485;-75
2023/03/01 19:21:35;;;;;;;22.47;13.83;;;;;;;-2.87;100.00;102162.22;10427171;28;20125;-77
2023/03/01 19:26:35;;;;;;;26.07;16.47;;;;;;;-2.92;100.00;102163.28;10428773;28;20037;-77
2023/03/01 19:31:36;;;;;;;17.70;12.93;;;;;;;-2.95;100.00;102168.03;10450994;28;20473;-77
2023/03/01 19:36:38;;;;;;;26.40;17.20;;;;;;;-2.72;100.00;102155.47;10439848;28;20396;-77
2023/03/01 19:41:38;;;;;;;;;;;;;;;-2.42;100.00;102169.25;10441123;28;20083;-77
2023/03/01 19:46:39;;;;;;;20.23;10.63;;;;;;;-2.32;100.00;102161.00;10438527;28;20373;-77
2023/03/01 19:51:39;;;;;;;17.53;11.63;;;;;;;-2.20;100.00;102171.84;10441342;28;20071;-77
2023/03/01 19:56:40;;;;;;;16.80;11.00;;;;;;;-2.27;100.00;102178.78;10439562;28;20437;-77
2023/03/01 20:01:43;;;;;;;16.43;9.83;;;;;;;-2.28;100.00;102187.22;10440468;28;20033;-77
2023/03/01 20:06:45;;;;;;;18.40;10.52;;;;;;;-2.43;100.00;102181.16;10440575;28;20037;-77
2023/03/01 20:11:45;;;;;;;15.32;8.30;;;;;;;-2.66;100.00;102183.50;10397126;28;20045;-77
2023/03/01 20:16:46;;;;;;;13.73;8.90;;;;;;;-2.82;100.00;102184.19;10391955;28;20070;-77
2023/03/01 20:21:46;;;;;;;21.23;9.73;;;;;;;-2.82;100.00;102184.19;10441576;28;20128;-77
2023/03/01 20:26:47;;;;;;;21.43;12.30;;;;;;;-2.92;100.00;102175.16;10399953;28;20121;-77
2023/03/01 20:31:47;;;;;;;13.30;10.67;;;;;;;-2.89;100.00;102175.56;10387258;28;20129;-77
2023/03/01 20:36:48;;;;;;;17.97;11.90;;;;;;;-2.84;100.00;102183.09;10399934;28;20041;-77
2023/03/01 20:41:48;;;;;;;13.87;11.73;;;;;;;-2.90;100.00;102177.22;10422751;28;20404;-77
2023/03/01 20:46:49;;;;;;;14.90;9.53;;;;;;;-2.96;100.00;102171.34;10434774;28;20048;-77
2023/03/01 20:51:50;;;;;;;17.13;13.03;;;;;;;-3.07;100.00;102184.47;10431959;28;20166;-76
2023/03/01 20:56:50;;;;;;;14.13;10.23;;;;;;;-3.23;100.00;102184.19;10437646;28;20177;-77
2023/03/01 21:01:50;;;;;;;19.77;12.13;;;;;;;-3.19;100.00;102183.84;10442322;28;20140;-77
2023/03/01 21:06:51;;;;;;;19.80;12.63;;;;;;;-3.18;100.00;102170.31;10428186;28;20169;-77
2023/03/01 21:11:51;;;;;;;16.00;11.17;;;;;;;-3.17;100.00;102165.41;10401182;28;20051;-77
2023/03/01 21:16:52;;;;;;;16.97;10.07;;;;;;;-3.03;100.00;102172.22;10416947;28;20437;-76
2023/03/01 21:21:52;;;;;;;16.47;9.83;;;;;;;-3.01;100.00;102160.50;10430896;28;20037;-77
2023/03/01 21:26:53;;;;;;;16.10;11.23;;;;;;;-3.11;100.00;102157.53;10474809;28;20120;-77
2023/03/01 21:31:53;;;;;;;18.90;10.87;;;;;;;-3.11;100.00;102152.41;10429789;28;20396;-76
2023/03/01 21:36:54;;;;;;;17.80;9.73;;;;;;;-3.01;100.00;102157.94;10434173;28;20659;-77
2023/03/01 21:41:55;;;;;;;17.87;10.23;;;;;;;-3.05;100.00;102158.28;10470560;28;20125;-77
2023/03/01 21:46:59;;;;;;;17.35;9.77;;;;;;;-2.97;100.00;102156.69;10444165;28;20047;-77
2023/03/01 21:51:59;;;;;;;18.80;10.85;;;;;;;-2.95;100.00;102153.56;10459069;28;20040;-77
2023/03/01 21:57:00;;;;;;;17.57;10.50;;;;;;;-2.87;100.00;102149.41;10442297;28;20049;-77
2023/03/01 22:02:00;;;;;;;16.17;10.47;;;;;;;-2.95;100.00;102155.25;10441136;28;20133;-77
2023/03/01 22:07:02;;;;;;;21.20;11.97;;;;;;;-3.07;100.00;102158.84;10443492;28;20124;-75
2023/03/01 22:12:03;;;;;;;;;;;;;;;-3.32;100.00;102159.28;10424715;28;20060;-75
2023/03/01 22:17:03;;;;;;;16.52;10.55;;;;;;;-3.43;100.00;102155.41;10465697;28;20012;-77
2023/03/01 22:22:04;;;;;;;11.03;7.93;;;;;;;-3.57;100.00;102160.47;10443692;28;20037;-75
2023/03/01 22:27:04;;;;;;;23.53;12.37;;;;;;;-3.65;100.00;102166.25;10467536;28;20041;-75
2023/03/01 22:32:05;;;;;;;16.37;10.27;;;;;;;-3.62;100.00;102172.66;10482826;28;20044;-75
2023/03/01 22:37:06;;;;;;;17.00;10.63;;;;;;;-3.56;100.00;102165.75;10447997;28;20090;-75
2023/03/01 22:42:06;;;;;;;20.10;13.23;;;;;;;-3.61;100.00;102171.94;10439091;28;20044;-75
2023/03/01 22:47:07;;;;;;;19.10;11.03;;;;;;;-3.77;100.00;102170.75;10470251;28;20131;-75